sensor_id;sensor_type;location;lat;lon;timestamp;temperature;humidity
3699;DHT22;1865;50.918;7.092;2023-06-19T00:00:27;26.10;47.10
3699;DHT22;1865;50.918;7.092;2023-06-19T00:02:52;26.10;46.90
3699;DHT22;1865;50.918;7.092;2023-06-19T00:05:18;26.00;47.20
3699;DHT22;1865;50.918;7.092;2023-06-19T00:07:44;26.00;47.40
3699;DHT22;1865;50.918;7.092;2023-06-19T00:10:09;26.00;47.30
3699;DHT22;1865;50.918;7.092;2023-06-19T00:12:35;25.90;46.70
3699;DHT22;1865;50.918;7.092;2023-06-19T00:15:01;25.90;47.10
3699;DHT22;1865;50.918;7.092;2023-06-19T00:17:27;25.80;47.10
3699;DHT22;1865;50.918;7.092;2023-06-19T00:19:53;25.80;47.20
3699;DHT22;1865;50.918;7.092;2023-06-19T00:22:19;25.70;47.30
3699;DHT22;1865;50.918;7.092;2023-06-19T00:24:45;25.70;47.50
3699;DHT22;1865;50.918;7.092;2023-06-19T00:27:11;25.60;47.90
3699;DHT22;1865;50.918;7.092;2023-06-19T00:29:36;25.60;48.00
3699;DHT22;1865;50.918;7.092;2023-06-19T00:32:02;25.60;48.00
3699;DHT22;1865;50.918;7.092;2023-06-19T00:34:29;25.50;48.00
3699;DHT22;1865;50.918;7.092;2023-06-19T00:36:55;25.50;48.00
3699;DHT22;1865;50.918;7.092;2023-06-19T00:39:22;25.50;48.10
3699;DHT22;1865;50.918;7.092;2023-06-19T00:41:48;25.50;48.50
3699;DHT22;1865;50.918;7.092;2023-06-19T00:44:14;25.50;48.70
3699;DHT22;1865;50.918;7.092;2023-06-19T00:46:40;25.50;48.10
3699;DHT22;1865;50.918;7.092;2023-06-19T00:49:07;25.50;48.40
3699;DHT22;1865;50.918;7.092;2023-06-19T00:51:33;25.40;48.10
3699;DHT22;1865;50.918;7.092;2023-06-19T00:53:59;25.40;48.10
3699;DHT22;1865;50.918;7.092;2023-06-19T00:56:25;25.40;47.90
3699;DHT22;1865;50.918;7.092;2023-06-19T00:58:52;25.50;47.90
3699;DHT22;1865;50.918;7.092;2023-06-19T01:01:19;25.50;47.60
3699;DHT22;1865;50.918;7.092;2023-06-19T01:03:46;25.50;47.60
3699;DHT22;1865;50.918;7.092;2023-06-19T01:06:19;25.50;47.80
3699;DHT22;1865;50.918;7.092;2023-06-19T01:09:02;25.40;48.00
3699;DHT22;1865;50.918;7.092;2023-06-19T01:11:35;25.40;48.10
3699;DHT22;1865;50.918;7.092;2023-06-19T01:14:08;25.30;48.00
3699;DHT22;1865;50.918;7.092;2023-06-19T01:16:34;25.30;47.80
3699;DHT22;1865;50.918;7.092;2023-06-19T01:19:00;25.40;47.70
3699;DHT22;1865;50.918;7.092;2023-06-19T01:21:26;25.40;47.80
3699;DHT22;1865;50.918;7.092;2023-06-19T01:23:51;25.30;47.60
3699;DHT22;1865;50.918;7.092;2023-06-19T01:26:17;25.30;47.80
3699;DHT22;1865;50.918;7.092;2023-06-19T01:28:44;25.30;47.90
3699;DHT22;1865;50.918;7.092;2023-06-19T01:31:24;25.20;47.70
3699;DHT22;1865;50.918;7.092;2023-06-19T01:33:51;25.10;47.80
3699;DHT22;1865;50.918;7.092;2023-06-19T01:36:19;25.00;47.70
3699;DHT22;1865;50.918;7.092;2023-06-19T01:38:45;25.00;47.50
3699;DHT22;1865;50.918;7.092;2023-06-19T01:41:13;25.00;47.50
3699;DHT22;1865;50.918;7.092;2023-06-19T01:43:40;25.00;47.20
3699;DHT22;1865;50.918;7.092;2023-06-19T01:46:06;25.00;47.00
3699;DHT22;1865;50.918;7.092;2023-06-19T01:48:32;25.00;47.00
3699;DHT22;1865;50.918;7.092;2023-06-19T01:50:57;25.00;46.80
3699;DHT22;1865;50.918;7.092;2023-06-19T01:53:23;25.00;47.00
3699;DHT22;1865;50.918;7.092;2023-06-19T01:55:48;25.10;46.70
3699;DHT22;1865;50.918;7.092;2023-06-19T01:58:14;25.10;46.60
3699;DHT22;1865;50.918;7.092;2023-06-19T02:00:40;25.10;46.40
3699;DHT22;1865;50.918;7.092;2023-06-19T02:03:05;25.10;46.40
3699;DHT22;1865;50.918;7.092;2023-06-19T02:05:31;25.00;46.70
3699;DHT22;1865;50.918;7.092;2023-06-19T02:07:57;25.10;46.70
3699;DHT22;1865;50.918;7.092;2023-06-19T02:10:23;25.10;46.60
3699;DHT22;1865;50.918;7.092;2023-06-19T02:12:48;25.10;46.60
3699;DHT22;1865;50.918;7.092;2023-06-19T02:15:14;25.10;46.70
3699;DHT22;1865;50.918;7.092;2023-06-19T02:17:39;25.00;46.80
3699;DHT22;1865;50.918;7.092;2023-06-19T02:20:08;25.00;46.70
3699;DHT22;1865;50.918;7.092;2023-06-19T02:22:40;25.00;47.00
3699;DHT22;1865;50.918;7.092;2023-06-19T02:25:06;25.00;47.40
3699;DHT22;1865;50.918;7.092;2023-06-19T02:27:32;24.90;47.50
3699;DHT22;1865;50.918;7.092;2023-06-19T02:29:58;24.90;47.60
3699;DHT22;1865;50.918;7.092;2023-06-19T02:32:23;24.90;47.50
3699;DHT22;1865;50.918;7.092;2023-06-19T02:34:49;25.00;47.30
3699;DHT22;1865;50.918;7.092;2023-06-19T02:37:14;25.00;47.80
3699;DHT22;1865;50.918;7.092;2023-06-19T02:39:40;25.00;47.30
3699;DHT22;1865;50.918;7.092;2023-06-19T02:42:06;25.10;47.00
3699;DHT22;1865;50.918;7.092;2023-06-19T02:44:31;25.00;46.80
3699;DHT22;1865;50.918;7.092;2023-06-19T02:46:57;25.10;46.80
3699;DHT22;1865;50.918;7.092;2023-06-19T02:49:23;25.10;47.20
3699;DHT22;1865;50.918;7.092;2023-06-19T02:51:48;25.00;46.90
3699;DHT22;1865;50.918;7.092;2023-06-19T02:54:14;25.00;46.90
3699;DHT22;1865;50.918;7.092;2023-06-19T02:56:39;25.00;46.90
3699;DHT22;1865;50.918;7.092;2023-06-19T02:59:05;25.00;47.00
3699;DHT22;1865;50.918;7.092;2023-06-19T03:01:30;25.00;47.10
3699;DHT22;1865;50.918;7.092;2023-06-19T03:03:56;25.00;47.10
3699;DHT22;1865;50.918;7.092;2023-06-19T03:06:22;25.00;47.10
3699;DHT22;1865;50.918;7.092;2023-06-19T03:08:47;25.00;46.90
3699;DHT22;1865;50.918;7.092;2023-06-19T03:11:13;25.00;46.80
3699;DHT22;1865;50.918;7.092;2023-06-19T03:13:52;25.00;46.90
3699;DHT22;1865;50.918;7.092;2023-06-19T03:16:18;25.10;46.70
3699;DHT22;1865;50.918;7.092;2023-06-19T03:18:44;25.00;47.00
3699;DHT22;1865;50.918;7.092;2023-06-19T03:21:11;25.00;47.10
3699;DHT22;1865;50.918;7.092;2023-06-19T03:23:36;25.00;47.10
3699;DHT22;1865;50.918;7.092;2023-06-19T03:26:02;25.00;47.10
3699;DHT22;1865;50.918;7.092;2023-06-19T03:28:28;25.00;47.10
3699;DHT22;1865;50.918;7.092;2023-06-19T03:30:53;24.90;47.60
3699;DHT22;1865;50.918;7.092;2023-06-19T03:33:19;24.80;47.90
3699;DHT22;1865;50.918;7.092;2023-06-19T03:35:44;24.70;48.40
3699;DHT22;1865;50.918;7.092;2023-06-19T03:38:10;24.70;48.70
3699;DHT22;1865;50.918;7.092;2023-06-19T03:40:35;24.70;48.70
3699;DHT22;1865;50.918;7.092;2023-06-19T03:43:01;24.70;48.30
3699;DHT22;1865;50.918;7.092;2023-06-19T03:45:26;24.60;48.80
3699;DHT22;1865;50.918;7.092;2023-06-19T03:47:53;24.50;49.00
3699;DHT22;1865;50.918;7.092;2023-06-19T03:50:18;24.50;49.20
3699;DHT22;1865;50.918;7.092;2023-06-19T03:52:44;24.40;49.30
3699;DHT22;1865;50.918;7.092;2023-06-19T03:55:10;24.40;49.00
3699;DHT22;1865;50.918;7.092;2023-06-19T03:57:35;24.40;48.80
3699;DHT22;1865;50.918;7.092;2023-06-19T04:00:01;24.40;48.70
3699;DHT22;1865;50.918;7.092;2023-06-19T04:02:26;24.40;48.50
3699;DHT22;1865;50.918;7.092;2023-06-19T04:04:53;24.50;48.40
3699;DHT22;1865;50.918;7.092;2023-06-19T04:07:18;24.50;48.30
3699;DHT22;1865;50.918;7.092;2023-06-19T04:09:44;24.60;47.90
3699;DHT22;1865;50.918;7.092;2023-06-19T04:12:10;24.60;47.50
3699;DHT22;1865;50.918;7.092;2023-06-19T04:14:35;24.70;47.70
3699;DHT22;1865;50.918;7.092;2023-06-19T04:17:01;24.70;47.70
3699;DHT22;1865;50.918;7.092;2023-06-19T04:19:26;24.70;48.10
3699;DHT22;1865;50.918;7.092;2023-06-19T04:21:52;24.70;47.80
3699;DHT22;1865;50.918;7.092;2023-06-19T04:24:20;24.70;48.00
3699;DHT22;1865;50.918;7.092;2023-06-19T04:26:45;24.80;47.90
3699;DHT22;1865;50.918;7.092;2023-06-19T04:29:10;24.80;47.50
3699;DHT22;1865;50.918;7.092;2023-06-19T04:31:45;24.80;47.70
3699;DHT22;1865;50.918;7.092;2023-06-19T04:34:18;24.70;47.30
3699;DHT22;1865;50.918;7.092;2023-06-19T04:36:49;24.80;46.90
3699;DHT22;1865;50.918;7.092;2023-06-19T04:39:15;24.90;46.40
3699;DHT22;1865;50.918;7.092;2023-06-19T04:41:43;24.90;46.40
3699;DHT22;1865;50.918;7.092;2023-06-19T04:44:09;25.00;46.20
3699;DHT22;1865;50.918;7.092;2023-06-19T04:46:37;25.00;45.90
3699;DHT22;1865;50.918;7.092;2023-06-19T04:49:03;25.00;46.00
3699;DHT22;1865;50.918;7.092;2023-06-19T04:51:30;25.10;46.20
3699;DHT22;1865;50.918;7.092;2023-06-19T04:53:55;25.00;46.40
3699;DHT22;1865;50.918;7.092;2023-06-19T04:56:21;25.10;46.30
3699;DHT22;1865;50.918;7.092;2023-06-19T04:58:46;25.20;46.50
3699;DHT22;1865;50.918;7.092;2023-06-19T05:01:15;25.20;46.40
3699;DHT22;1865;50.918;7.092;2023-06-19T05:03:43;25.10;46.70
3699;DHT22;1865;50.918;7.092;2023-06-19T05:06:08;25.20;46.60
3699;DHT22;1865;50.918;7.092;2023-06-19T05:08:34;25.30;46.50
3699;DHT22;1865;50.918;7.092;2023-06-19T05:11:00;25.20;47.00
3699;DHT22;1865;50.918;7.092;2023-06-19T05:13:25;25.10;47.40
3699;DHT22;1865;50.918;7.092;2023-06-19T05:15:51;25.00;47.50
3699;DHT22;1865;50.918;7.092;2023-06-19T05:18:17;25.00;47.90
3699;DHT22;1865;50.918;7.092;2023-06-19T05:20:43;25.00;48.10
3699;DHT22;1865;50.918;7.092;2023-06-19T05:23:08;25.10;48.10
3699;DHT22;1865;50.918;7.092;2023-06-19T05:25:34;25.20;47.70
3699;DHT22;1865;50.918;7.092;2023-06-19T05:27:59;25.20;47.60
3699;DHT22;1865;50.918;7.092;2023-06-19T05:30:25;25.10;47.70
3699;DHT22;1865;50.918;7.092;2023-06-19T05:32:50;25.20;48.10
3699;DHT22;1865;50.918;7.092;2023-06-19T05:35:16;25.20;48.30
3699;DHT22;1865;50.918;7.092;2023-06-19T05:37:41;25.30;48.00
3699;DHT22;1865;50.918;7.092;2023-06-19T05:40:09;25.20;48.00
3699;DHT22;1865;50.918;7.092;2023-06-19T05:42:38;25.20;48.00
3699;DHT22;1865;50.918;7.092;2023-06-19T05:45:04;25.30;47.90
3699;DHT22;1865;50.918;7.092;2023-06-19T05:47:30;25.20;47.70
3699;DHT22;1865;50.918;7.092;2023-06-19T05:49:56;25.10;48.40
3699;DHT22;1865;50.918;7.092;2023-06-19T05:52:22;25.00;48.60
3699;DHT22;1865;50.918;7.092;2023-06-19T05:54:48;25.20;48.40
3699;DHT22;1865;50.918;7.092;2023-06-19T05:57:13;25.30;48.30
3699;DHT22;1865;50.918;7.092;2023-06-19T05:59:41;25.30;48.00
3699;DHT22;1865;50.918;7.092;2023-06-19T06:02:07;25.20;48.40
3699;DHT22;1865;50.918;7.092;2023-06-19T06:04:33;25.30;48.40
3699;DHT22;1865;50.918;7.092;2023-06-19T06:07:00;25.40;48.00
3699;DHT22;1865;50.918;7.092;2023-06-19T06:09:25;25.40;48.10
3699;DHT22;1865;50.918;7.092;2023-06-19T06:11:52;25.50;48.50
3699;DHT22;1865;50.918;7.092;2023-06-19T06:14:18;25.50;47.70
3699;DHT22;1865;50.918;7.092;2023-06-19T06:16:43;25.60;48.00
3699;DHT22;1865;50.918;7.092;2023-06-19T06:19:09;25.50;47.80
3699;DHT22;1865;50.918;7.092;2023-06-19T06:21:34;25.60;47.90
3699;DHT22;1865;50.918;7.092;2023-06-19T06:24:00;25.70;47.90
3699;DHT22;1865;50.918;7.092;2023-06-19T06:26:25;25.80;47.10
3699;DHT22;1865;50.918;7.092;2023-06-19T06:28:53;25.70;47.40
3699;DHT22;1865;50.918;7.092;2023-06-19T06:31:18;25.70;47.30
3699;DHT22;1865;50.918;7.092;2023-06-19T06:33:44;25.80;47.10
3699;DHT22;1865;50.918;7.092;2023-06-19T06:36:09;25.80;46.80
3699;DHT22;1865;50.918;7.092;2023-06-19T06:38:35;25.80;46.90
3699;DHT22;1865;50.918;7.092;2023-06-19T06:41:01;26.00;47.10
3699;DHT22;1865;50.918;7.092;2023-06-19T06:43:26;26.10;46.90
3699;DHT22;1865;50.918;7.092;2023-06-19T06:45:52;26.10;46.90
3699;DHT22;1865;50.918;7.092;2023-06-19T06:48:17;26.20;46.90
3699;DHT22;1865;50.918;7.092;2023-06-19T06:50:43;26.30;45.80
3699;DHT22;1865;50.918;7.092;2023-06-19T06:53:09;26.40;45.30
3699;DHT22;1865;50.918;7.092;2023-06-19T06:55:34;26.40;45.20
3699;DHT22;1865;50.918;7.092;2023-06-19T06:58:00;26.30;45.80
3699;DHT22;1865;50.918;7.092;2023-06-19T07:00:25;26.50;45.60
3699;DHT22;1865;50.918;7.092;2023-06-19T07:02:51;26.50;45.40
3699;DHT22;1865;50.918;7.092;2023-06-19T07:05:17;26.50;44.70
3699;DHT22;1865;50.918;7.092;2023-06-19T07:07:42;26.50;45.00
3699;DHT22;1865;50.918;7.092;2023-06-19T07:10:08;26.50;44.30
3699;DHT22;1865;50.918;7.092;2023-06-19T07:12:34;26.50;43.40
3699;DHT22;1865;50.918;7.092;2023-06-19T07:15:01;26.40;43.90
3699;DHT22;1865;50.918;7.092;2023-06-19T07:17:26;26.50;43.90
3699;DHT22;1865;50.918;7.092;2023-06-19T07:19:52;26.60;43.70
3699;DHT22;1865;50.918;7.092;2023-06-19T07:22:17;26.50;43.60
3699;DHT22;1865;50.918;7.092;2023-06-19T07:24:43;26.30;43.50
3699;DHT22;1865;50.918;7.092;2023-06-19T07:27:08;26.00;44.30
3699;DHT22;1865;50.918;7.092;2023-06-19T07:29:34;26.00;45.10
3699;DHT22;1865;50.918;7.092;2023-06-19T07:31:59;26.00;44.80
3699;DHT22;1865;50.918;7.092;2023-06-19T07:34:27;26.10;44.90
3699;DHT22;1865;50.918;7.092;2023-06-19T07:36:53;26.40;44.10
3699;DHT22;1865;50.918;7.092;2023-06-19T07:39:19;26.60;43.90
3699;DHT22;1865;50.918;7.092;2023-06-19T07:41:44;26.70;43.30
3699;DHT22;1865;50.918;7.092;2023-06-19T07:44:11;26.90;43.30
3699;DHT22;1865;50.918;7.092;2023-06-19T07:46:36;27.00;43.90
3699;DHT22;1865;50.918;7.092;2023-06-19T07:49:02;27.20;43.10
3699;DHT22;1865;50.918;7.092;2023-06-19T07:51:27;27.20;43.10
3699;DHT22;1865;50.918;7.092;2023-06-19T07:53:53;27.20;42.60
3699;DHT22;1865;50.918;7.092;2023-06-19T07:56:18;27.20;42.80
3699;DHT22;1865;50.918;7.092;2023-06-19T07:58:44;27.10;41.70
3699;DHT22;1865;50.918;7.092;2023-06-19T08:01:09;27.10;41.60
3699;DHT22;1865;50.918;7.092;2023-06-19T08:03:35;27.30;40.50
3699;DHT22;1865;50.918;7.092;2023-06-19T08:06:01;27.20;40.20
3699;DHT22;1865;50.918;7.092;2023-06-19T08:08:27;27.40;40.60
3699;DHT22;1865;50.918;7.092;2023-06-19T08:10:52;27.50;39.80
3699;DHT22;1865;50.918;7.092;2023-06-19T08:13:18;27.40;38.60
3699;DHT22;1865;50.918;7.092;2023-06-19T08:15:43;27.40;39.00
3699;DHT22;1865;50.918;7.092;2023-06-19T08:18:10;27.20;39.00
3699;DHT22;1865;50.918;7.092;2023-06-19T08:20:36;27.20;39.30
3699;DHT22;1865;50.918;7.092;2023-06-19T08:23:01;27.10;39.90
3699;DHT22;1865;50.918;7.092;2023-06-19T08:25:27;27.20;39.70
3699;DHT22;1865;50.918;7.092;2023-06-19T08:27:53;27.30;39.50
3699;DHT22;1865;50.918;7.092;2023-06-19T08:30:18;27.40;39.20
3699;DHT22;1865;50.918;7.092;2023-06-19T08:32:45;27.40;39.00
3699;DHT22;1865;50.918;7.092;2023-06-19T08:35:11;27.50;38.90
3699;DHT22;1865;50.918;7.092;2023-06-19T08:37:37;27.40;39.10
3699;DHT22;1865;50.918;7.092;2023-06-19T08:40:03;27.30;38.80
3699;DHT22;1865;50.918;7.092;2023-06-19T08:42:33;27.40;39.40
3699;DHT22;1865;50.918;7.092;2023-06-19T08:44:59;27.30;39.70
3699;DHT22;1865;50.918;7.092;2023-06-19T08:47:29;27.40;40.10
3699;DHT22;1865;50.918;7.092;2023-06-19T08:49:56;27.20;39.40
3699;DHT22;1865;50.918;7.092;2023-06-19T08:52:21;27.40;39.70
3699;DHT22;1865;50.918;7.092;2023-06-19T08:54:47;27.40;39.80
3699;DHT22;1865;50.918;7.092;2023-06-19T08:57:12;27.10;40.20
3699;DHT22;1865;50.918;7.092;2023-06-19T08:59:38;27.20;41.00
3699;DHT22;1865;50.918;7.092;2023-06-19T09:02:03;27.20;40.80
3699;DHT22;1865;50.918;7.092;2023-06-19T09:04:29;27.10;41.10
3699;DHT22;1865;50.918;7.092;2023-06-19T09:07:02;27.10;41.20
3699;DHT22;1865;50.918;7.092;2023-06-19T09:09:28;27.10;40.70
3699;DHT22;1865;50.918;7.092;2023-06-19T09:11:58;27.30;41.10
3699;DHT22;1865;50.918;7.092;2023-06-19T09:14:34;27.40;39.90
3699;DHT22;1865;50.918;7.092;2023-06-19T09:17:04;27.40;39.00
3699;DHT22;1865;50.918;7.092;2023-06-19T09:19:30;27.60;38.90
3699;DHT22;1865;50.918;7.092;2023-06-19T09:22:08;28.00;39.30
3699;DHT22;1865;50.918;7.092;2023-06-19T09:24:38;28.20;38.10
3699;DHT22;1865;50.918;7.092;2023-06-19T09:27:12;28.00;37.90
3699;DHT22;1865;50.918;7.092;2023-06-19T09:29:45;27.90;37.70
3699;DHT22;1865;50.918;7.092;2023-06-19T09:34:43;27.60;37.90
3699;DHT22;1865;50.918;7.092;2023-06-19T09:37:09;27.70;38.60
3699;DHT22;1865;50.918;7.092;2023-06-19T09:39:37;28.00;38.40
3699;DHT22;1865;50.918;7.092;2023-06-19T09:42:03;28.20;38.50
3699;DHT22;1865;50.918;7.092;2023-06-19T09:44:31;28.10;37.40
3699;DHT22;1865;50.918;7.092;2023-06-19T09:46:58;28.10;38.20
3699;DHT22;1865;50.918;7.092;2023-06-19T09:49:28;28.30;38.40
3699;DHT22;1865;50.918;7.092;2023-06-19T09:51:57;28.30;37.50
3699;DHT22;1865;50.918;7.092;2023-06-19T09:54:24;28.20;36.70
3699;DHT22;1865;50.918;7.092;2023-06-19T09:56:52;28.10;36.90
3699;DHT22;1865;50.918;7.092;2023-06-19T09:59:21;28.10;37.10
3699;DHT22;1865;50.918;7.092;2023-06-19T10:01:48;28.20;36.90
3699;DHT22;1865;50.918;7.092;2023-06-19T10:04:15;28.40;36.80
3699;DHT22;1865;50.918;7.092;2023-06-19T10:06:46;28.50;36.30
3699;DHT22;1865;50.918;7.092;2023-06-19T10:09:15;28.60;36.50
3699;DHT22;1865;50.918;7.092;2023-06-19T10:11:50;28.90;35.50
3699;DHT22;1865;50.918;7.092;2023-06-19T10:14:17;29.00;35.90
3699;DHT22;1865;50.918;7.092;2023-06-19T10:16:44;29.20;36.30
3699;DHT22;1865;50.918;7.092;2023-06-19T10:19:17;29.20;34.80
3699;DHT22;1865;50.918;7.092;2023-06-19T10:21:53;29.10;35.60
3699;DHT22;1865;50.918;7.092;2023-06-19T10:24:19;29.40;35.00
3699;DHT22;1865;50.918;7.092;2023-06-19T10:26:59;29.40;34.60
3699;DHT22;1865;50.918;7.092;2023-06-19T10:29:25;29.10;33.90
3699;DHT22;1865;50.918;7.092;2023-06-19T10:31:53;29.10;34.60
3699;DHT22;1865;50.918;7.092;2023-06-19T10:34:18;29.30;34.70
3699;DHT22;1865;50.918;7.092;2023-06-19T10:36:44;29.30;34.60
3699;DHT22;1865;50.918;7.092;2023-06-19T10:39:10;29.40;34.80
3699;DHT22;1865;50.918;7.092;2023-06-19T10:41:35;29.40;34.30
3699;DHT22;1865;50.918;7.092;2023-06-19T10:44:06;29.50;35.00
3699;DHT22;1865;50.918;7.092;2023-06-19T10:46:36;29.60;33.70
3699;DHT22;1865;50.918;7.092;2023-06-19T10:49:02;29.60;33.50
3699;DHT22;1865;50.918;7.092;2023-06-19T10:51:30;29.70;33.70
3699;DHT22;1865;50.918;7.092;2023-06-19T10:53:56;29.80;33.10
3699;DHT22;1865;50.918;7.092;2023-06-19T10:56:23;29.90;33.30
3699;DHT22;1865;50.918;7.092;2023-06-19T10:58:59;30.00;32.90
3699;DHT22;1865;50.918;7.092;2023-06-19T11:01:45;30.10;33.80
3699;DHT22;1865;50.918;7.092;2023-06-19T11:04:13;30.20;32.60
3699;DHT22;1865;50.918;7.092;2023-06-19T11:06:41;30.90;32.80
3699;DHT22;1865;50.918;7.092;2023-06-19T11:09:09;31.60;30.40
3699;DHT22;1865;50.918;7.092;2023-06-19T11:11:43;32.10;30.00
3699;DHT22;1865;50.918;7.092;2023-06-19T11:14:10;32.40;30.40
3699;DHT22;1865;50.918;7.092;2023-06-19T11:16:40;32.10;29.00
3699;DHT22;1865;50.918;7.092;2023-06-19T11:19:18;31.90;28.50
3699;DHT22;1865;50.918;7.092;2023-06-19T11:24:22;32.00;28.90
3699;DHT22;1865;50.918;7.092;2023-06-19T11:26:50;31.80;28.20
3699;DHT22;1865;50.918;7.092;2023-06-19T11:29:20;31.70;28.50
3699;DHT22;1865;50.918;7.092;2023-06-19T11:31:47;31.60;29.50
3699;DHT22;1865;50.918;7.092;2023-06-19T11:34:14;31.50;29.60
3699;DHT22;1865;50.918;7.092;2023-06-19T11:36:40;31.40;30.10
3699;DHT22;1865;50.918;7.092;2023-06-19T11:39:15;31.40;30.90
3699;DHT22;1865;50.918;7.092;2023-06-19T11:41:43;31.30;29.60
3699;DHT22;1865;50.918;7.092;2023-06-19T11:44:10;31.10;30.00
3699;DHT22;1865;50.918;7.092;2023-06-19T11:46:36;30.90;29.30
3699;DHT22;1865;50.918;7.092;2023-06-19T11:51:35;30.90;30.00
3699;DHT22;1865;50.918;7.092;2023-06-19T11:54:01;30.90;29.80
3699;DHT22;1865;50.918;7.092;2023-06-19T11:56:26;30.90;29.10
3699;DHT22;1865;50.918;7.092;2023-06-19T11:58:52;31.00;29.90
3699;DHT22;1865;50.918;7.092;2023-06-19T12:01:17;31.30;29.60
3699;DHT22;1865;50.918;7.092;2023-06-19T12:03:43;31.50;28.20
3699;DHT22;1865;50.918;7.092;2023-06-19T12:06:09;31.70;26.90
3699;DHT22;1865;50.918;7.092;2023-06-19T12:08:35;32.00;26.70
3699;DHT22;1865;50.918;7.092;2023-06-19T12:11:02;32.50;27.30
3699;DHT22;1865;50.918;7.092;2023-06-19T12:13:28;33.20;25.30
3699;DHT22;1865;50.918;7.092;2023-06-19T12:15:54;33.70;26.00
3699;DHT22;1865;50.918;7.092;2023-06-19T12:18:19;33.90;25.00
3699;DHT22;1865;50.918;7.092;2023-06-19T12:20:45;34.10;26.50
3699;DHT22;1865;50.918;7.092;2023-06-19T12:23:10;34.10;25.00
3699;DHT22;1865;50.918;7.092;2023-06-19T12:25:36;33.80;25.60
3699;DHT22;1865;50.918;7.092;2023-06-19T12:28:01;33.80;25.30
3699;DHT22;1865;50.918;7.092;2023-06-19T12:30:30;33.80;24.70
3699;DHT22;1865;50.918;7.092;2023-06-19T12:32:56;34.00;24.50
3699;DHT22;1865;50.918;7.092;2023-06-19T12:35:22;33.90;24.10
3699;DHT22;1865;50.918;7.092;2023-06-19T12:37:48;34.00;25.30
3699;DHT22;1865;50.918;7.092;2023-06-19T12:40:14;33.60;24.40
3699;DHT22;1865;50.918;7.092;2023-06-19T12:42:40;33.10;24.50
3699;DHT22;1865;50.918;7.092;2023-06-19T12:45:06;33.00;25.50
3699;DHT22;1865;50.918;7.092;2023-06-19T12:47:32;33.20;26.10
3699;DHT22;1865;50.918;7.092;2023-06-19T12:49:57;33.30;25.40
3699;DHT22;1865;50.918;7.092;2023-06-19T12:52:23;33.60;25.10
3699;DHT22;1865;50.918;7.092;2023-06-19T12:54:48;33.80;25.20
3699;DHT22;1865;50.918;7.092;2023-06-19T12:57:14;33.80;24.60
3699;DHT22;1865;50.918;7.092;2023-06-19T12:59:39;34.10;25.10
3699;DHT22;1865;50.918;7.092;2023-06-19T13:02:05;34.20;25.40
3699;DHT22;1865;50.918;7.092;2023-06-19T13:04:31;34.30;25.20
3699;DHT22;1865;50.918;7.092;2023-06-19T13:06:56;34.30;25.30
3699;DHT22;1865;50.918;7.092;2023-06-19T13:09:22;34.10;25.50
3699;DHT22;1865;50.918;7.092;2023-06-19T13:11:48;34.10;25.60
3699;DHT22;1865;50.918;7.092;2023-06-19T13:14:15;34.00;24.80
3699;DHT22;1865;50.918;7.092;2023-06-19T13:16:40;33.60;24.70
3699;DHT22;1865;50.918;7.092;2023-06-19T13:19:06;33.50;24.70
3699;DHT22;1865;50.918;7.092;2023-06-19T13:21:31;33.70;25.70
3699;DHT22;1865;50.918;7.092;2023-06-19T13:23:57;34.10;25.90
3699;DHT22;1865;50.918;7.092;2023-06-19T13:26:22;34.70;24.60
3699;DHT22;1865;50.918;7.092;2023-06-19T13:28:48;35.30;23.80
3699;DHT22;1865;50.918;7.092;2023-06-19T13:31:14;36.30;23.80
3699;DHT22;1865;50.918;7.092;2023-06-19T13:33:39;37.00;23.20
3699;DHT22;1865;50.918;7.092;2023-06-19T13:36:05;37.90;22.20
3699;DHT22;1865;50.918;7.092;2023-06-19T13:38:30;38.30;22.00
3699;DHT22;1865;50.918;7.092;2023-06-19T13:40:56;38.60;21.10
3699;DHT22;1865;50.918;7.092;2023-06-19T13:43:22;38.60;20.00
3699;DHT22;1865;50.918;7.092;2023-06-19T13:45:49;38.70;20.80
3699;DHT22;1865;50.918;7.092;2023-06-19T13:48:14;39.20;21.60
3699;DHT22;1865;50.918;7.092;2023-06-19T13:50:40;39.50;21.00
3699;DHT22;1865;50.918;7.092;2023-06-19T13:53:05;39.80;20.20
3699;DHT22;1865;50.918;7.092;2023-06-19T13:55:31;40.00;19.90
3699;DHT22;1865;50.918;7.092;2023-06-19T13:57:57;40.30;19.90
3699;DHT22;1865;50.918;7.092;2023-06-19T14:00:23;41.20;19.40
3699;DHT22;1865;50.918;7.092;2023-06-19T14:02:48;41.40;19.50
3699;DHT22;1865;50.918;7.092;2023-06-19T14:05:15;42.20;18.60
3699;DHT22;1865;50.918;7.092;2023-06-19T14:07:41;43.00;18.90
3699;DHT22;1865;50.918;7.092;2023-06-19T14:10:08;42.60;17.40
3699;DHT22;1865;50.918;7.092;2023-06-19T14:12:33;42.30;18.20
3699;DHT22;1865;50.918;7.092;2023-06-19T14:14:59;42.00;18.10
3699;DHT22;1865;50.918;7.092;2023-06-19T14:17:25;42.00;18.20
3699;DHT22;1865;50.918;7.092;2023-06-19T14:19:50;42.00;18.20
3699;DHT22;1865;50.918;7.092;2023-06-19T14:22:16;42.60;17.40
3699;DHT22;1865;50.918;7.092;2023-06-19T14:24:42;42.90;17.30
3699;DHT22;1865;50.918;7.092;2023-06-19T14:27:08;42.80;17.40
3699;DHT22;1865;50.918;7.092;2023-06-19T14:29:34;43.00;17.70
3699;DHT22;1865;50.918;7.092;2023-06-19T14:31:59;42.40;17.70
3699;DHT22;1865;50.918;7.092;2023-06-19T14:34:25;41.40;18.50
3699;DHT22;1865;50.918;7.092;2023-06-19T14:36:50;40.80;18.40
3699;DHT22;1865;50.918;7.092;2023-06-19T14:39:16;39.90;19.10
3699;DHT22;1865;50.918;7.092;2023-06-19T14:41:42;38.90;19.50
3699;DHT22;1865;50.918;7.092;2023-06-19T14:44:07;37.70;20.20
3699;DHT22;1865;50.918;7.092;2023-06-19T14:46:33;37.10;21.00
3699;DHT22;1865;50.918;7.092;2023-06-19T14:48:59;36.60;21.40
3699;DHT22;1865;50.918;7.092;2023-06-19T14:51:26;36.10;22.40
3699;DHT22;1865;50.918;7.092;2023-06-19T14:53:52;35.50;22.50
3699;DHT22;1865;50.918;7.092;2023-06-19T14:56:17;35.30;23.40
3699;DHT22;1865;50.918;7.092;2023-06-19T14:58:43;34.70;22.50
3699;DHT22;1865;50.918;7.092;2023-06-19T15:01:09;34.30;23.60
3699;DHT22;1865;50.918;7.092;2023-06-19T15:03:35;34.30;24.30
3699;DHT22;1865;50.918;7.092;2023-06-19T15:06:01;34.30;24.20
3699;DHT22;1865;50.918;7.092;2023-06-19T15:08:26;34.30;23.60
3699;DHT22;1865;50.918;7.092;2023-06-19T15:10:52;34.30;24.00
3699;DHT22;1865;50.918;7.092;2023-06-19T15:13:18;34.00;24.20
3699;DHT22;1865;50.918;7.092;2023-06-19T15:15:44;33.90;23.70
3699;DHT22;1865;50.918;7.092;2023-06-19T15:18:10;33.90;24.00
3699;DHT22;1865;50.918;7.092;2023-06-19T15:20:36;33.80;23.90
3699;DHT22;1865;50.918;7.092;2023-06-19T15:23:03;33.70;23.90
3699;DHT22;1865;50.918;7.092;2023-06-19T15:25:28;33.70;24.00
3699;DHT22;1865;50.918;7.092;2023-06-19T15:27:54;33.70;24.60
3699;DHT22;1865;50.918;7.092;2023-06-19T15:30:19;33.60;24.70
3699;DHT22;1865;50.918;7.092;2023-06-19T15:32:45;33.40;25.30
3699;DHT22;1865;50.918;7.092;2023-06-19T15:35:10;33.30;25.20
3699;DHT22;1865;50.918;7.092;2023-06-19T15:37:36;33.30;24.90
3699;DHT22;1865;50.918;7.092;2023-06-19T15:40:02;33.30;24.40
3699;DHT22;1865;50.918;7.092;2023-06-19T15:42:28;33.50;25.00
3699;DHT22;1865;50.918;7.092;2023-06-19T15:44:53;33.40;25.00
3699;DHT22;1865;50.918;7.092;2023-06-19T15:47:19;33.40;24.70
3699;DHT22;1865;50.918;7.092;2023-06-19T15:49:45;33.50;24.90
3699;DHT22;1865;50.918;7.092;2023-06-19T15:52:10;33.40;24.70
3699;DHT22;1865;50.918;7.092;2023-06-19T15:54:36;33.40;24.80
3699;DHT22;1865;50.918;7.092;2023-06-19T15:57:03;33.40;25.30
3699;DHT22;1865;50.918;7.092;2023-06-19T15:59:28;33.40;24.70
3699;DHT22;1865;50.918;7.092;2023-06-19T16:01:54;33.40;25.40
3699;DHT22;1865;50.918;7.092;2023-06-19T16:04:19;33.30;25.00